Warning: file_get_contents(http://avwx.rest/api/metar/VHHH): failed to open stream: HTTP request failed! HTTP/1.1 500 INTERNAL SERVER ERROR in /var/www/metroair/shared/private/library/orig_library/lib_airport.php on line 361
Featured Flight

MET995 - Kuala Lumpur International Airport to Hong Kong

Airbus A330-243
787MT
3 hrs 30 mins
1375 nm
Scheduled - M | TU | TH

Bid/PiRep Status

Bid was submitted on Jan 02 2017.

PiRep # 74582: Approved by Dave Nichols on January 3rd, 2017 5:15 UTC

Departure

Departing from
Kuala Lumpur International Airport (KUL)
Departure gate
Ramp
Scheduled Departure
GMT 0830
Local 1630
METAR WMKK 220530Z 09004KT 9999 FEW018 SCT140 BKN280 32/24 Q1010 NOSIG
TAF TAF WMKK 220500Z 2206/2312 07010KT 9999 FEW017CB SCT140 BKN280 TEMPO 2206/2210 5000 TSRA FEW015CB SCT018
  • No charts available

Arrival

Arriving at
Hong Kong (HKG)
Arrival gate
Ramp
Scheduled Arrival
GMT 1200
Local 2000
METAR
TAF TAF VHHH 220500Z 2206/2312 VRB05KT 7000 FEW015 SCT025 TX24/2206Z TN18/2223Z TN15/2312Z TEMPO 2206/2219 09010KT TEMPO 2212/2219 3000 BR BECMG 2219/2221 36010KT 2500 BR -RA TEMPO 2221/2302 0800 FG BECMG 2303/2305 35015G25KT 7000 NSW

Route Map

Planning Resources

PIBOS.A M763 ENREP L642 EPDOS ACORN DUMOL1A
VKL G334 VPT RAXIM M771 CH
VKR R208 IGARI M765 DAGAG M771 DULOP CARSO V551 BETTY BETY2A
Route:
OFP Layout:
Units:
Detailed Navlog:
ETOPS Planning:
Plan Stepclimbs:
Runway Analysis:
Include NOTAMS:
FIR NOTAMS:
Flight Maps:

Return Flights

MET994
Airbus A330-243
0330 GMT

Popularity

Hub Current Bids PiReps this month Total PiReps
KMCI 0 0 2
KLAX 0 0 2
KBOS 0 0 0